sensor_id;sensor_type;location;lat;lon;timestamp;temperature;humidity
21039;DHT22;10678;51.002;4.786;2023-10-19T00:01:15;16.60;99.90
21039;DHT22;10678;51.002;4.786;2023-10-19T00:03:44;16.70;99.90
21039;DHT22;10678;51.002;4.786;2023-10-19T00:06:10;16.70;99.90
21039;DHT22;10678;51.002;4.786;2023-10-19T00:08:37;16.70;99.90
21039;DHT22;10678;51.002;4.786;2023-10-19T00:11:07;16.70;99.90
21039;DHT22;10678;51.002;4.786;2023-10-19T00:13:38;16.60;99.90
21039;DHT22;10678;51.002;4.786;2023-10-19T00:16:04;16.70;99.90
21039;DHT22;10678;51.002;4.786;2023-10-19T00:18:43;16.70;99.90
21039;DHT22;10678;51.002;4.786;2023-10-19T00:21:09;16.80;99.90
21039;DHT22;10678;51.002;4.786;2023-10-19T00:23:52;16.80;99.90
21039;DHT22;10678;51.002;4.786;2023-10-19T00:26:22;16.80;99.90
21039;DHT22;10678;51.002;4.786;2023-10-19T00:28:51;16.70;99.90
21039;DHT22;10678;51.002;4.786;2023-10-19T00:31:24;16.70;99.90
21039;DHT22;10678;51.002;4.786;2023-10-19T00:33:50;16.80;99.90
21039;DHT22;10678;51.002;4.786;2023-10-19T00:36:20;16.70;99.90
21039;DHT22;10678;51.002;4.786;2023-10-19T00:38:47;16.70;99.90
21039;DHT22;10678;51.002;4.786;2023-10-19T00:41:13;16.70;99.90
21039;DHT22;10678;51.002;4.786;2023-10-19T00:43:45;16.80;99.90
21039;DHT22;10678;51.002;4.786;2023-10-19T00:46:17;16.70;99.90
21039;DHT22;10678;51.002;4.786;2023-10-19T00:51:17;16.80;99.90
21039;DHT22;10678;51.002;4.786;2023-10-19T00:56:36;16.70;99.90
21039;DHT22;10678;51.002;4.786;2023-10-19T00:59:02;16.60;99.90
21039;DHT22;10678;51.002;4.786;2023-10-19T01:01:38;16.60;99.90
21039;DHT22;10678;51.002;4.786;2023-10-19T01:04:12;16.70;99.90
21039;DHT22;10678;51.002;4.786;2023-10-19T01:06:46;16.60;99.90
21039;DHT22;10678;51.002;4.786;2023-10-19T01:09:27;16.60;99.90
21039;DHT22;10678;51.002;4.786;2023-10-19T01:11:53;16.70;99.90
21039;DHT22;10678;51.002;4.786;2023-10-19T01:14:23;16.70;99.90
21039;DHT22;10678;51.002;4.786;2023-10-19T01:16:54;16.70;99.90
21039;DHT22;10678;51.002;4.786;2023-10-19T01:19:23;16.70;99.90
21039;DHT22;10678;51.002;4.786;2023-10-19T01:21:49;16.60;99.90
21039;DHT22;10678;51.002;4.786;2023-10-19T01:24:19;16.60;99.90
21039;DHT22;10678;51.002;4.786;2023-10-19T01:26:52;16.60;99.90
21039;DHT22;10678;51.002;4.786;2023-10-19T01:29:19;16.60;99.90
21039;DHT22;10678;51.002;4.786;2023-10-19T01:31:52;16.60;99.90
21039;DHT22;10678;51.002;4.786;2023-10-19T01:34:37;16.70;99.90
21039;DHT22;10678;51.002;4.786;2023-10-19T01:37:03;16.60;99.90
21039;DHT22;10678;51.002;4.786;2023-10-19T01:39:34;16.60;99.90
21039;DHT22;10678;51.002;4.786;2023-10-19T01:42:02;16.70;99.90
21039;DHT22;10678;51.002;4.786;2023-10-19T01:44:32;16.70;99.90
21039;DHT22;10678;51.002;4.786;2023-10-19T01:47:01;16.70;99.90
21039;DHT22;10678;51.002;4.786;2023-10-19T01:49:27;16.80;99.90
21039;DHT22;10678;51.002;4.786;2023-10-19T01:51:54;16.80;99.90
21039;DHT22;10678;51.002;4.786;2023-10-19T01:54:20;16.80;99.90
21039;DHT22;10678;51.002;4.786;2023-10-19T01:56:54;16.80;99.90
21039;DHT22;10678;51.002;4.786;2023-10-19T01:59:23;16.80;99.90
21039;DHT22;10678;51.002;4.786;2023-10-19T02:01:55;16.70;99.90
21039;DHT22;10678;51.002;4.786;2023-10-19T02:04:23;16.70;99.90
21039;DHT22;10678;51.002;4.786;2023-10-19T02:06:49;16.70;99.90
21039;DHT22;10678;51.002;4.786;2023-10-19T02:09:17;16.70;99.90
21039;DHT22;10678;51.002;4.786;2023-10-19T02:11:44;16.70;99.90
21039;DHT22;10678;51.002;4.786;2023-10-19T02:14:13;16.60;99.90
21039;DHT22;10678;51.002;4.786;2023-10-19T02:16:44;16.60;99.90
21039;DHT22;10678;51.002;4.786;2023-10-19T02:19:12;16.60;99.90
21039;DHT22;10678;51.002;4.786;2023-10-19T02:21:41;16.60;99.90
21039;DHT22;10678;51.002;4.786;2023-10-19T02:24:10;16.60;99.90
21039;DHT22;10678;51.002;4.786;2023-10-19T02:26:43;16.60;99.90
21039;DHT22;10678;51.002;4.786;2023-10-19T02:29:09;16.60;99.90
21039;DHT22;10678;51.002;4.786;2023-10-19T02:31:45;16.70;99.90
21039;DHT22;10678;51.002;4.786;2023-10-19T02:34:12;16.60;99.90
21039;DHT22;10678;51.002;4.786;2023-10-19T02:36:41;16.60;99.90
21039;DHT22;10678;51.002;4.786;2023-10-19T02:39:11;16.60;99.90
21039;DHT22;10678;51.002;4.786;2023-10-19T02:41:41;16.50;99.90
21039;DHT22;10678;51.002;4.786;2023-10-19T02:44:18;16.50;99.90
21039;DHT22;10678;51.002;4.786;2023-10-19T02:46:49;16.50;99.90
21039;DHT22;10678;51.002;4.786;2023-10-19T02:49:16;16.40;99.90
21039;DHT22;10678;51.002;4.786;2023-10-19T02:51:46;16.50;99.90
21039;DHT22;10678;51.002;4.786;2023-10-19T02:54:17;16.50;99.90
21039;DHT22;10678;51.002;4.786;2023-10-19T02:56:51;16.50;99.90
21039;DHT22;10678;51.002;4.786;2023-10-19T02:59:19;16.50;99.90
21039;DHT22;10678;51.002;4.786;2023-10-19T03:01:49;16.50;99.90
21039;DHT22;10678;51.002;4.786;2023-10-19T03:04:15;16.40;99.90
21039;DHT22;10678;51.002;4.786;2023-10-19T03:06:41;16.50;99.90
21039;DHT22;10678;51.002;4.786;2023-10-19T03:09:08;16.50;99.90
21039;DHT22;10678;51.002;4.786;2023-10-19T03:11:57;16.40;99.90
21039;DHT22;10678;51.002;4.786;2023-10-19T03:14:29;16.30;99.90
21039;DHT22;10678;51.002;4.786;2023-10-19T03:16:55;16.40;99.90
21039;DHT22;10678;51.002;4.786;2023-10-19T03:19:22;16.30;99.90
21039;DHT22;10678;51.002;4.786;2023-10-19T03:21:47;16.30;99.90
21039;DHT22;10678;51.002;4.786;2023-10-19T03:24:17;16.30;99.90
21039;DHT22;10678;51.002;4.786;2023-10-19T03:27:04;16.30;99.90
21039;DHT22;10678;51.002;4.786;2023-10-19T03:29:38;16.30;99.90
21039;DHT22;10678;51.002;4.786;2023-10-19T03:32:05;16.20;99.90
21039;DHT22;10678;51.002;4.786;2023-10-19T03:34:35;16.30;99.90
21039;DHT22;10678;51.002;4.786;2023-10-19T03:37:01;16.20;99.90
21039;DHT22;10678;51.002;4.786;2023-10-19T03:39:33;16.10;99.90
21039;DHT22;10678;51.002;4.786;2023-10-19T03:42:04;16.20;99.90
21039;DHT22;10678;51.002;4.786;2023-10-19T03:44:32;16.20;99.90
21039;DHT22;10678;51.002;4.786;2023-10-19T03:47:18;16.10;99.90
21039;DHT22;10678;51.002;4.786;2023-10-19T03:49:50;16.20;99.90
21039;DHT22;10678;51.002;4.786;2023-10-19T03:52:16;16.20;99.90
21039;DHT22;10678;51.002;4.786;2023-10-19T03:54:42;16.20;99.90
21039;DHT22;10678;51.002;4.786;2023-10-19T03:57:09;16.20;99.90
21039;DHT22;10678;51.002;4.786;2023-10-19T03:59:41;16.30;99.90
21039;DHT22;10678;51.002;4.786;2023-10-19T04:02:08;16.30;99.90
21039;DHT22;10678;51.002;4.786;2023-10-19T04:04:40;16.30;99.90
21039;DHT22;10678;51.002;4.786;2023-10-19T04:07:09;16.30;99.90
21039;DHT22;10678;51.002;4.786;2023-10-19T04:09:51;16.40;99.90
21039;DHT22;10678;51.002;4.786;2023-10-19T04:12:27;16.30;99.90
21039;DHT22;10678;51.002;4.786;2023-10-19T04:15:01;16.30;99.90
21039;DHT22;10678;51.002;4.786;2023-10-19T04:17:43;16.40;99.90
21039;DHT22;10678;51.002;4.786;2023-10-19T04:20:11;16.40;99.90
21039;DHT22;10678;51.002;4.786;2023-10-19T04:22:43;16.30;99.90
21039;DHT22;10678;51.002;4.786;2023-10-19T04:25:09;16.30;99.90
21039;DHT22;10678;51.002;4.786;2023-10-19T04:27:38;16.30;99.90
21039;DHT22;10678;51.002;4.786;2023-10-19T04:30:04;16.40;99.90
21039;DHT22;10678;51.002;4.786;2023-10-19T04:32:30;16.40;99.90
21039;DHT22;10678;51.002;4.786;2023-10-19T04:34:57;16.40;99.90
21039;DHT22;10678;51.002;4.786;2023-10-19T04:37:24;16.40;99.90
21039;DHT22;10678;51.002;4.786;2023-10-19T04:39:50;16.40;99.90
21039;DHT22;10678;51.002;4.786;2023-10-19T04:42:15;16.50;99.90
21039;DHT22;10678;51.002;4.786;2023-10-19T04:44:41;16.50;99.90
21039;DHT22;10678;51.002;4.786;2023-10-19T04:47:06;16.50;99.90
21039;DHT22;10678;51.002;4.786;2023-10-19T04:49:32;16.50;99.90
21039;DHT22;10678;51.002;4.786;2023-10-19T04:51:58;16.60;99.90
21039;DHT22;10678;51.002;4.786;2023-10-19T04:54:23;16.60;99.90
21039;DHT22;10678;51.002;4.786;2023-10-19T04:56:49;16.60;99.90
21039;DHT22;10678;51.002;4.786;2023-10-19T04:59:18;16.60;99.90
21039;DHT22;10678;51.002;4.786;2023-10-19T05:01:43;16.60;99.90
21039;DHT22;10678;51.002;4.786;2023-10-19T05:04:09;16.60;99.90
21039;DHT22;10678;51.002;4.786;2023-10-19T05:06:34;16.60;99.90
21039;DHT22;10678;51.002;4.786;2023-10-19T05:09:00;16.60;99.90
21039;DHT22;10678;51.002;4.786;2023-10-19T05:11:28;16.60;99.90
21039;DHT22;10678;51.002;4.786;2023-10-19T05:13:54;16.60;99.90
21039;DHT22;10678;51.002;4.786;2023-10-19T05:16:20;16.60;99.90
21039;DHT22;10678;51.002;4.786;2023-10-19T05:18:45;16.60;99.90
21039;DHT22;10678;51.002;4.786;2023-10-19T05:21:11;16.60;99.90
21039;DHT22;10678;51.002;4.786;2023-10-19T05:23:38;16.50;99.90
21039;DHT22;10678;51.002;4.786;2023-10-19T05:26:04;16.50;99.90
21039;DHT22;10678;51.002;4.786;2023-10-19T05:28:30;16.50;99.90
21039;DHT22;10678;51.002;4.786;2023-10-19T05:30:56;16.60;99.90
21039;DHT22;10678;51.002;4.786;2023-10-19T05:33:22;16.60;99.90
21039;DHT22;10678;51.002;4.786;2023-10-19T05:35:50;16.60;99.90
21039;DHT22;10678;51.002;4.786;2023-10-19T05:38:18;16.60;99.90
21039;DHT22;10678;51.002;4.786;2023-10-19T05:40:48;16.60;99.90
21039;DHT22;10678;51.002;4.786;2023-10-19T05:43:15;16.60;99.90
21039;DHT22;10678;51.002;4.786;2023-10-19T05:45:41;16.60;99.90
21039;DHT22;10678;51.002;4.786;2023-10-19T05:48:07;16.60;99.90
21039;DHT22;10678;51.002;4.786;2023-10-19T05:50:34;16.60;99.90
21039;DHT22;10678;51.002;4.786;2023-10-19T05:53:00;16.60;99.90
21039;DHT22;10678;51.002;4.786;2023-10-19T05:55:26;16.60;99.90
21039;DHT22;10678;51.002;4.786;2023-10-19T05:57:51;16.60;99.90
21039;DHT22;10678;51.002;4.786;2023-10-19T06:00:17;16.60;99.90
21039;DHT22;10678;51.002;4.786;2023-10-19T06:02:49;16.60;99.90
21039;DHT22;10678;51.002;4.786;2023-10-19T06:05:16;16.60;99.90
21039;DHT22;10678;51.002;4.786;2023-10-19T06:07:46;16.60;99.90
21039;DHT22;10678;51.002;4.786;2023-10-19T06:10:13;16.60;99.90
21039;DHT22;10678;51.002;4.786;2023-10-19T06:12:47;16.60;99.90
21039;DHT22;10678;51.002;4.786;2023-10-19T06:15:14;16.50;99.90
21039;DHT22;10678;51.002;4.786;2023-10-19T06:17:42;16.60;99.90
21039;DHT22;10678;51.002;4.786;2023-10-19T06:20:10;16.60;99.90
21039;DHT22;10678;51.002;4.786;2023-10-19T06:22:48;16.60;99.90
21039;DHT22;10678;51.002;4.786;2023-10-19T06:25:20;16.70;99.90
21039;DHT22;10678;51.002;4.786;2023-10-19T06:27:50;16.60;99.90
21039;DHT22;10678;51.002;4.786;2023-10-19T06:30:17;16.60;99.90
21039;DHT22;10678;51.002;4.786;2023-10-19T06:32:50;16.70;99.90
21039;DHT22;10678;51.002;4.786;2023-10-19T06:35:17;16.70;99.90
21039;DHT22;10678;51.002;4.786;2023-10-19T06:37:43;16.70;99.90
21039;DHT22;10678;51.002;4.786;2023-10-19T06:40:09;16.70;99.90
21039;DHT22;10678;51.002;4.786;2023-10-19T06:42:37;16.80;99.90
21039;DHT22;10678;51.002;4.786;2023-10-19T06:45:04;16.80;99.90
21039;DHT22;10678;51.002;4.786;2023-10-19T06:47:29;16.80;99.90
21039;DHT22;10678;51.002;4.786;2023-10-19T06:49:55;16.80;99.90
21039;DHT22;10678;51.002;4.786;2023-10-19T06:52:22;16.80;99.90
21039;DHT22;10678;51.002;4.786;2023-10-19T06:54:47;16.80;99.90
21039;DHT22;10678;51.002;4.786;2023-10-19T06:57:13;16.80;99.90
21039;DHT22;10678;51.002;4.786;2023-10-19T06:59:39;16.80;99.90
21039;DHT22;10678;51.002;4.786;2023-10-19T07:02:05;16.80;99.90
21039;DHT22;10678;51.002;4.786;2023-10-19T07:04:33;16.80;99.90
21039;DHT22;10678;51.002;4.786;2023-10-19T07:06:59;16.80;99.90
21039;DHT22;10678;51.002;4.786;2023-10-19T07:09:26;16.80;99.90
21039;DHT22;10678;51.002;4.786;2023-10-19T07:11:51;16.70;99.90
21039;DHT22;10678;51.002;4.786;2023-10-19T07:14:20;16.70;99.90
21039;DHT22;10678;51.002;4.786;2023-10-19T07:16:48;16.70;99.90
21039;DHT22;10678;51.002;4.786;2023-10-19T07:19:14;16.70;99.90
21039;DHT22;10678;51.002;4.786;2023-10-19T07:21:40;16.70;99.90
21039;DHT22;10678;51.002;4.786;2023-10-19T07:24:08;16.80;99.90
21039;DHT22;10678;51.002;4.786;2023-10-19T07:26:36;16.90;99.90
21039;DHT22;10678;51.002;4.786;2023-10-19T07:29:16;17.00;99.90
21039;DHT22;10678;51.002;4.786;2023-10-19T07:31:42;17.00;99.90
21039;DHT22;10678;51.002;4.786;2023-10-19T07:34:08;17.00;99.90
21039;DHT22;10678;51.002;4.786;2023-10-19T07:36:38;17.00;99.90
21039;DHT22;10678;51.002;4.786;2023-10-19T07:39:04;17.00;99.90
21039;DHT22;10678;51.002;4.786;2023-10-19T07:41:30;17.00;99.90
21039;DHT22;10678;51.002;4.786;2023-10-19T07:44:01;17.00;99.90
21039;DHT22;10678;51.002;4.786;2023-10-19T07:46:27;17.00;99.90
21039;DHT22;10678;51.002;4.786;2023-10-19T07:48:54;16.90;99.90
21039;DHT22;10678;51.002;4.786;2023-10-19T07:51:20;16.90;99.90
21039;DHT22;10678;51.002;4.786;2023-10-19T07:53:45;16.90;99.90
21039;DHT22;10678;51.002;4.786;2023-10-19T07:56:11;17.00;99.90
21039;DHT22;10678;51.002;4.786;2023-10-19T07:58:37;17.10;99.90
21039;DHT22;10678;51.002;4.786;2023-10-19T08:01:02;17.20;99.90
21039;DHT22;10678;51.002;4.786;2023-10-19T08:03:28;17.20;99.90
21039;DHT22;10678;51.002;4.786;2023-10-19T08:05:54;17.20;99.90
21039;DHT22;10678;51.002;4.786;2023-10-19T08:08:19;17.30;99.90
21039;DHT22;10678;51.002;4.786;2023-10-19T08:10:45;17.30;99.90
21039;DHT22;10678;51.002;4.786;2023-10-19T08:13:12;17.30;99.90
21039;DHT22;10678;51.002;4.786;2023-10-19T08:15:38;17.50;99.90
21039;DHT22;10678;51.002;4.786;2023-10-19T08:18:04;17.60;99.90
21039;DHT22;10678;51.002;4.786;2023-10-19T08:20:31;17.60;99.90
21039;DHT22;10678;51.002;4.786;2023-10-19T08:22:57;17.80;99.90
21039;DHT22;10678;51.002;4.786;2023-10-19T08:25:24;17.90;99.90
21039;DHT22;10678;51.002;4.786;2023-10-19T08:27:52;18.10;99.90
21039;DHT22;10678;51.002;4.786;2023-10-19T08:30:22;18.20;99.90
21039;DHT22;10678;51.002;4.786;2023-10-19T08:32:50;18.20;99.90
21039;DHT22;10678;51.002;4.786;2023-10-19T08:35:18;18.30;99.90
21039;DHT22;10678;51.002;4.786;2023-10-19T08:37:46;18.40;99.90
21039;DHT22;10678;51.002;4.786;2023-10-19T08:40:12;18.40;99.90
21039;DHT22;10678;51.002;4.786;2023-10-19T08:42:45;18.40;99.90
21039;DHT22;10678;51.002;4.786;2023-10-19T08:45:12;18.40;99.90
21039;DHT22;10678;51.002;4.786;2023-10-19T08:47:54;18.40;99.90
21039;DHT22;10678;51.002;4.786;2023-10-19T08:50:27;18.30;99.90
21039;DHT22;10678;51.002;4.786;2023-10-19T08:52:56;18.30;99.90
21039;DHT22;10678;51.002;4.786;2023-10-19T08:55:22;18.50;99.90
21039;DHT22;10678;51.002;4.786;2023-10-19T08:57:51;18.60;99.90
21039;DHT22;10678;51.002;4.786;2023-10-19T09:00:18;18.50;99.90
21039;DHT22;10678;51.002;4.786;2023-10-19T09:02:46;18.60;99.90
21039;DHT22;10678;51.002;4.786;2023-10-19T09:05:12;18.70;99.90
21039;DHT22;10678;51.002;4.786;2023-10-19T09:07:54;18.70;99.90
21039;DHT22;10678;51.002;4.786;2023-10-19T09:10:27;18.70;99.90
21039;DHT22;10678;51.002;4.786;2023-10-19T09:13:02;18.70;99.90
21039;DHT22;10678;51.002;4.786;2023-10-19T09:15:28;18.80;99.90
21039;DHT22;10678;51.002;4.786;2023-10-19T09:18:22;18.70;99.90
21039;DHT22;10678;51.002;4.786;2023-10-19T09:20:50;18.80;99.90
21039;DHT22;10678;51.002;4.786;2023-10-19T09:23:20;18.80;99.90
21039;DHT22;10678;51.002;4.786;2023-10-19T09:25:49;18.70;99.90
21039;DHT22;10678;51.002;4.786;2023-10-19T09:28:18;18.70;99.90
21039;DHT22;10678;51.002;4.786;2023-10-19T09:30:44;18.80;99.90
21039;DHT22;10678;51.002;4.786;2023-10-19T09:33:10;18.90;99.90
21039;DHT22;10678;51.002;4.786;2023-10-19T09:35:37;18.90;99.90
21039;DHT22;10678;51.002;4.786;2023-10-19T09:38:04;18.90;99.90
21039;DHT22;10678;51.002;4.786;2023-10-19T09:40:32;18.90;99.90
21039;DHT22;10678;51.002;4.786;2023-10-19T09:42:58;19.00;99.90
21039;DHT22;10678;51.002;4.786;2023-10-19T09:45:28;19.00;99.90
21039;DHT22;10678;51.002;4.786;2023-10-19T09:47:55;19.00;99.90
21039;DHT22;10678;51.002;4.786;2023-10-19T09:50:22;19.00;99.90
21039;DHT22;10678;51.002;4.786;2023-10-19T09:52:48;19.10;99.90
21039;DHT22;10678;51.002;4.786;2023-10-19T09:55:33;19.10;99.90
21039;DHT22;10678;51.002;4.786;2023-10-19T09:58:17;19.10;99.90
21039;DHT22;10678;51.002;4.786;2023-10-19T10:00:46;19.10;99.90
21039;DHT22;10678;51.002;4.786;2023-10-19T10:06:12;19.00;99.90
21039;DHT22;10678;51.002;4.786;2023-10-19T10:08:40;19.00;99.90
21039;DHT22;10678;51.002;4.786;2023-10-19T10:11:21;19.10;99.90
21039;DHT22;10678;51.002;4.786;2023-10-19T10:13:48;19.10;99.90
21039;DHT22;10678;51.002;4.786;2023-10-19T10:16:23;19.20;99.90
21039;DHT22;10678;51.002;4.786;2023-10-19T10:18:50;19.30;99.90
21039;DHT22;10678;51.002;4.786;2023-10-19T10:21:19;19.20;99.90
21039;DHT22;10678;51.002;4.786;2023-10-19T10:23:59;19.30;99.90
21039;DHT22;10678;51.002;4.786;2023-10-19T10:26:30;19.30;99.90
21039;DHT22;10678;51.002;4.786;2023-10-19T10:29:15;19.30;99.90
21039;DHT22;10678;51.002;4.786;2023-10-19T10:31:48;19.20;99.90
21039;DHT22;10678;51.002;4.786;2023-10-19T10:37:01;19.10;99.90
21039;DHT22;10678;51.002;4.786;2023-10-19T10:39:28;19.00;99.90
21039;DHT22;10678;51.002;4.786;2023-10-19T10:42:01;18.90;99.90
21039;DHT22;10678;51.002;4.786;2023-10-19T10:44:46;19.00;99.90
21039;DHT22;10678;51.002;4.786;2023-10-19T10:47:19;18.90;99.90
21039;DHT22;10678;51.002;4.786;2023-10-19T10:49:54;19.10;99.90
21039;DHT22;10678;51.002;4.786;2023-10-19T10:52:31;19.20;99.90
21039;DHT22;10678;51.002;4.786;2023-10-19T10:55:08;19.30;99.90
21039;DHT22;10678;51.002;4.786;2023-10-19T10:57:36;19.50;99.90
21039;DHT22;10678;51.002;4.786;2023-10-19T11:00:10;19.60;99.90
21039;DHT22;10678;51.002;4.786;2023-10-19T11:02:47;19.60;99.90
21039;DHT22;10678;51.002;4.786;2023-10-19T11:05:23;19.70;99.90
21039;DHT22;10678;51.002;4.786;2023-10-19T11:08:12;19.80;99.90
21039;DHT22;10678;51.002;4.786;2023-10-19T11:10:48;19.50;99.90
21039;DHT22;10678;51.002;4.786;2023-10-19T11:13:15;19.40;99.90
21039;DHT22;10678;51.002;4.786;2023-10-19T11:15:52;19.40;99.90
21039;DHT22;10678;51.002;4.786;2023-10-19T11:18:38;19.40;99.90
21039;DHT22;10678;51.002;4.786;2023-10-19T11:21:15;19.40;99.90
21039;DHT22;10678;51.002;4.786;2023-10-19T11:26:12;19.30;99.90
21039;DHT22;10678;51.002;4.786;2023-10-19T11:28:39;19.30;99.90
21039;DHT22;10678;51.002;4.786;2023-10-19T11:31:18;19.30;99.90
21039;DHT22;10678;51.002;4.786;2023-10-19T11:33:48;19.30;99.90
21039;DHT22;10678;51.002;4.786;2023-10-19T11:36:15;19.20;99.90
21039;DHT22;10678;51.002;4.786;2023-10-19T11:38:46;19.20;99.90
21039;DHT22;10678;51.002;4.786;2023-10-19T11:41:13;19.20;99.90
21039;DHT22;10678;51.002;4.786;2023-10-19T11:43:41;19.20;99.90
21039;DHT22;10678;51.002;4.786;2023-10-19T11:46:08;19.20;99.90
21039;DHT22;10678;51.002;4.786;2023-10-19T11:48:35;19.20;99.90
21039;DHT22;10678;51.002;4.786;2023-10-19T11:51:04;19.10;99.90
21039;DHT22;10678;51.002;4.786;2023-10-19T11:53:34;19.10;99.90
21039;DHT22;10678;51.002;4.786;2023-10-19T11:56:03;19.10;99.90
21039;DHT22;10678;51.002;4.786;2023-10-19T11:58:33;19.00;99.90
21039;DHT22;10678;51.002;4.786;2023-10-19T12:01:00;19.00;99.90
21039;DHT22;10678;51.002;4.786;2023-10-19T12:03:26;19.10;99.90
21039;DHT22;10678;51.002;4.786;2023-10-19T12:05:52;19.10;99.90
21039;DHT22;10678;51.002;4.786;2023-10-19T12:08:19;19.10;99.90
21039;DHT22;10678;51.002;4.786;2023-10-19T12:10:44;19.10;99.90
21039;DHT22;10678;51.002;4.786;2023-10-19T12:13:10;19.10;99.90
21039;DHT22;10678;51.002;4.786;2023-10-19T12:15:36;19.10;99.90
21039;DHT22;10678;51.002;4.786;2023-10-19T12:18:02;19.10;99.90
21039;DHT22;10678;51.002;4.786;2023-10-19T12:20:29;19.00;99.90
21039;DHT22;10678;51.002;4.786;2023-10-19T12:22:58;19.00;99.90
21039;DHT22;10678;51.002;4.786;2023-10-19T12:25:24;19.00;99.90
21039;DHT22;10678;51.002;4.786;2023-10-19T12:27:58;19.00;99.90
21039;DHT22;10678;51.002;4.786;2023-10-19T12:30:24;19.00;99.90
21039;DHT22;10678;51.002;4.786;2023-10-19T12:32:54;18.90;99.90
21039;DHT22;10678;51.002;4.786;2023-10-19T12:35:20;18.90;99.90
21039;DHT22;10678;51.002;4.786;2023-10-19T12:37:50;18.70;99.90
21039;DHT22;10678;51.002;4.786;2023-10-19T12:40:21;18.70;99.90
21039;DHT22;10678;51.002;4.786;2023-10-19T12:42:54;18.60;99.90
21039;DHT22;10678;51.002;4.786;2023-10-19T12:45:24;18.60;99.90
21039;DHT22;10678;51.002;4.786;2023-10-19T12:47:51;18.50;99.90
21039;DHT22;10678;51.002;4.786;2023-10-19T12:50:21;18.60;99.90
21039;DHT22;10678;51.002;4.786;2023-10-19T12:52:50;18.50;99.90
21039;DHT22;10678;51.002;4.786;2023-10-19T12:55:18;18.50;99.90
21039;DHT22;10678;51.002;4.786;2023-10-19T12:57:44;18.50;99.90
21039;DHT22;10678;51.002;4.786;2023-10-19T13:00:10;18.50;99.90
21039;DHT22;10678;51.002;4.786;2023-10-19T13:03:06;18.50;99.90
21039;DHT22;10678;51.002;4.786;2023-10-19T13:05:35;18.60;99.90
21039;DHT22;10678;51.002;4.786;2023-10-19T13:08:05;18.60;99.90
21039;DHT22;10678;51.002;4.786;2023-10-19T13:10:33;18.60;99.90
21039;DHT22;10678;51.002;4.786;2023-10-19T13:13:04;18.90;99.90
21039;DHT22;10678;51.002;4.786;2023-10-19T13:15:35;19.10;99.90
21039;DHT22;10678;51.002;4.786;2023-10-19T13:18:01;19.30;99.90
21039;DHT22;10678;51.002;4.786;2023-10-19T13:20:29;19.30;99.90
21039;DHT22;10678;51.002;4.786;2023-10-19T13:23:04;19.20;99.90
21039;DHT22;10678;51.002;4.786;2023-10-19T13:25:30;19.10;99.90
21039;DHT22;10678;51.002;4.786;2023-10-19T13:28:13;19.20;99.90
21039;DHT22;10678;51.002;4.786;2023-10-19T13:30:39;19.40;99.90
21039;DHT22;10678;51.002;4.786;2023-10-19T13:33:06;19.70;99.90
21039;DHT22;10678;51.002;4.786;2023-10-19T13:35:37;19.90;99.90
21039;DHT22;10678;51.002;4.786;2023-10-19T13:38:07;20.00;99.90
21039;DHT22;10678;51.002;4.786;2023-10-19T13:40:37;19.90;99.90
21039;DHT22;10678;51.002;4.786;2023-10-19T13:43:04;19.80;99.90
21039;DHT22;10678;51.002;4.786;2023-10-19T13:45:32;19.60;99.90
21039;DHT22;10678;51.002;4.786;2023-10-19T13:48:02;19.50;99.90
21039;DHT22;10678;51.002;4.786;2023-10-19T13:50:29;19.50;99.90
21039;DHT22;10678;51.002;4.786;2023-10-19T13:52:55;19.50;99.90
21039;DHT22;10678;51.002;4.786;2023-10-19T13:55:26;19.60;99.90
21039;DHT22;10678;51.002;4.786;2023-10-19T13:57:52;19.50;99.90
21039;DHT22;10678;51.002;4.786;2023-10-19T14:00:19;19.50;99.90
21039;DHT22;10678;51.002;4.786;2023-10-19T14:02:50;19.60;99.90
21039;DHT22;10678;51.002;4.786;2023-10-19T14:05:16;19.50;99.90
21039;DHT22;10678;51.002;4.786;2023-10-19T14:07:42;19.50;99.90
21039;DHT22;10678;51.002;4.786;2023-10-19T14:10:09;19.60;99.90
21039;DHT22;10678;51.002;4.786;2023-10-19T14:12:38;19.70;99.90
21039;DHT22;10678;51.002;4.786;2023-10-19T14:15:10;19.70;99.90
21039;DHT22;10678;51.002;4.786;2023-10-19T14:17:37;19.70;99.90
21039;DHT22;10678;51.002;4.786;2023-10-19T14:20:02;19.70;99.90
21039;DHT22;10678;51.002;4.786;2023-10-19T14:22:31;19.80;99.90
21039;DHT22;10678;51.002;4.786;2023-10-19T14:25:00;19.80;99.90
21039;DHT22;10678;51.002;4.786;2023-10-19T14:27:26;19.80;99.90
21039;DHT22;10678;51.002;4.786;2023-10-19T14:29:52;19.60;99.90
21039;DHT22;10678;51.002;4.786;2023-10-19T14:32:17;19.60;99.90
21039;DHT22;10678;51.002;4.786;2023-10-19T14:34:44;19.60;99.90
21039;DHT22;10678;51.002;4.786;2023-10-19T14:37:09;19.50;99.90
21039;DHT22;10678;51.002;4.786;2023-10-19T14:39:35;19.60;99.90
21039;DHT22;10678;51.002;4.786;2023-10-19T14:42:01;19.60;99.90
21039;DHT22;10678;51.002;4.786;2023-10-19T14:44:26;19.60;99.90
21039;DHT22;10678;51.002;4.786;2023-10-19T14:46:53;19.60;99.90
21039;DHT22;10678;51.002;4.786;2023-10-19T14:49:18;19.60;99.90
21039;DHT22;10678;51.002;4.786;2023-10-19T14:51:44;19.40;99.90
21039;DHT22;10678;51.002;4.786;2023-10-19T14:54:10;19.50;99.90
21039;DHT22;10678;51.002;4.786;2023-10-19T14:56:36;19.40;99.90
21039;DHT22;10678;51.002;4.786;2023-10-19T14:59:02;19.40;99.90
21039;DHT22;10678;51.002;4.786;2023-10-19T15:01:31;19.30;99.90
21039;DHT22;10678;51.002;4.786;2023-10-19T15:03:56;19.30;99.90
21039;DHT22;10678;51.002;4.786;2023-10-19T15:06:22;19.20;99.90
21039;DHT22;10678;51.002;4.786;2023-10-19T15:08:47;19.20;99.90
21039;DHT22;10678;51.002;4.786;2023-10-19T15:11:17;19.10;99.90
21039;DHT22;10678;51.002;4.786;2023-10-19T15:13:43;19.10;99.90
21039;DHT22;10678;51.002;4.786;2023-10-19T15:16:09;19.20;99.90
21039;DHT22;10678;51.002;4.786;2023-10-19T15:18:35;19.10;99.90
21039;DHT22;10678;51.002;4.786;2023-10-19T15:21:08;19.00;99.90
21039;DHT22;10678;51.002;4.786;2023-10-19T15:23:34;18.90;99.90
21039;DHT22;10678;51.002;4.786;2023-10-19T15:26:00;18.80;99.90
21039;DHT22;10678;51.002;4.786;2023-10-19T15:28:27;18.80;99.90
21039;DHT22;10678;51.002;4.786;2023-10-19T15:30:57;18.80;99.90
21039;DHT22;10678;51.002;4.786;2023-10-19T15:33:24;18.90;99.90
21039;DHT22;10678;51.002;4.786;2023-10-19T15:35:52;18.80;99.90
21039;DHT22;10678;51.002;4.786;2023-10-19T15:38:19;18.80;99.90
21039;DHT22;10678;51.002;4.786;2023-10-19T15:40:45;18.80;99.90
21039;DHT22;10678;51.002;4.786;2023-10-19T15:43:10;18.80;99.90
21039;DHT22;10678;51.002;4.786;2023-10-19T15:45:36;18.80;99.90
21039;DHT22;10678;51.002;4.786;2023-10-19T15:48:05;18.90;99.90
21039;DHT22;10678;51.002;4.786;2023-10-19T15:50:31;18.90;99.90
21039;DHT22;10678;51.002;4.786;2023-10-19T15:53:00;18.80;99.90
21039;DHT22;10678;51.002;4.786;2023-10-19T15:55:27;18.90;99.90